Time;durP1;ratioP1;P1;durP2;ratioP2;P2;SDS_P1;SDS_P2;PMS_P1;PMS_P2;Temp;Humidity;BMP_temperature;BMP_pressure;BME280_temperature;BME280_humidity;BME280_pressure;Samples;Min_cycle;Max_cycle;Signal;HPM_P1;HPM_P2
2023/03/07 00:00:13;;;;;;;14.65;6.50;;;11.00;99.90;;;;;;4911246;29;20032;-90
2023/03/07 00:02:39;;;;;;;15.15;7.10;;;11.00;99.90;;;;;;4915473;29;20024;-93
2023/03/07 00:05:07;;;;;;;14.63;6.90;;;10.90;99.90;;;;;;4903145;29;20166;-92
2023/03/07 00:07:33;;;;;;;14.52;6.72;;;10.90;99.90;;;;;;4886720;29;20028;-91
2023/03/07 00:09:59;;;;;;;14.05;7.65;;;10.80;99.90;;;;;;4902025;29;20079;-91
2023/03/07 00:12:26;;;;;;;12.60;7.65;;;10.80;99.90;;;;;;4902041;29;20036;-92
2023/03/07 00:14:55;;;;;;;15.20;7.10;;;10.80;99.90;;;;;;4902179;29;20036;-92
2023/03/07 00:17:21;;;;;;;12.02;7.13;;;10.80;99.90;;;;;;4901964;29;20032;-91
2023/03/07 00:19:47;;;;;;;16.30;7.30;;;10.80;99.90;;;;;;4903788;29;20028;-91
2023/03/07 00:22:14;;;;;;;16.33;7.00;;;10.80;99.90;;;;;;4902000;29;20182;-91
2023/03/07 00:24:40;;;;;;;10.27;6.88;;;10.80;99.90;;;;;;4901726;29;20024;-93
2023/03/07 00:27:07;;;;;;;20.67;7.75;;;10.70;99.90;;;;;;4901908;29;20028;-92
2023/03/07 00:29:34;;;;;;;15.52;7.38;;;10.70;99.90;;;;;;4901561;29;20066;-92
2023/03/07 00:32:00;;;;;;;21.20;8.32;;;10.70;99.90;;;;;;4901511;29;20032;-91
2023/03/07 00:34:26;;;;;;;16.58;8.23;;;10.60;99.90;;;;;;4901717;29;20394;-92
2023/03/07 00:36:53;;;;;;;21.33;9.32;;;10.60;99.90;;;;;;4901366;29;20184;-92
2023/03/07 00:39:20;;;;;;;22.73;9.85;;;10.50;99.90;;;;;;4885885;29;20036;-91
2023/03/07 00:41:46;;;;;;;21.17;9.45;;;10.50;99.90;;;;;;4886200;29;20083;-91
2023/03/07 00:44:13;;;;;;;21.55;9.57;;;10.40;99.90;;;;;;4902241;29;20067;-92
2023/03/07 00:46:39;;;;;;;22.80;8.93;;;10.30;99.90;;;;;;4885869;29;20490;-93
2023/03/07 00:49:06;;;;;;;18.20;9.40;;;10.20;99.90;;;;;;4902095;29;20481;-93
2023/03/07 00:51:32;;;;;;;21.40;9.43;;;10.10;99.90;;;;;;4885850;29;20397;-92
2023/03/07 00:53:59;;;;;;;24.55;9.55;;;10.00;99.90;;;;;;4901519;29;20044;-92
2023/03/07 00:56:26;;;;;;;18.25;8.57;;;9.90;99.90;;;;;;4886130;29;20055;-92
2023/03/07 00:58:52;;;;;;;19.38;8.30;;;9.80;99.90;;;;;;4901487;29;20028;-91
2023/03/07 01:01:24;;;;;;;26.30;8.70;;;9.70;99.90;;;;;;4885863;29;20036;-91
2023/03/07 01:03:55;;;;;;;15.30;8.27;;;9.60;99.90;;;;;;4885262;29;20100;-92
2023/03/07 01:06:31;;;;;;;14.50;7.25;;;9.50;99.90;;;;;;4885792;29;20064;-91
2023/03/07 01:08:59;;;;;;;15.95;7.20;;;9.50;99.90;;;;;;4885736;29;20452;-92
2023/03/07 01:11:28;;;;;;;18.15;6.85;;;9.40;99.90;;;;;;4901246;29;20058;-92
2023/03/07 01:14:00;;;;;;;15.45;6.70;;;9.40;99.90;;;;;;4885901;29;20096;-91
2023/03/07 01:16:29;;;;;;;16.80;7.00;;;9.40;99.90;;;;;;4901457;29;20032;-91
2023/03/07 01:18:59;;;;;;;20.50;7.35;;;9.30;99.90;;;;;;4901244;29;20040;-91
2023/03/07 01:21:33;;;;;;;18.05;7.20;;;9.30;99.90;;;;;;4885828;29;20024;-91
2023/03/07 01:24:04;;;;;;;25.17;7.63;;;9.30;99.90;;;;;;4885907;29;20039;-92
2023/03/07 01:26:31;;;;;;;24.30;7.07;;;9.20;99.90;;;;;;4885889;29;20486;-91
2023/03/07 01:29:01;;;;;;;17.52;6.80;;;9.30;99.90;;;;;;4901416;29;20063;-90
2023/03/07 01:31:29;;;;;;;18.13;6.50;;;9.20;99.90;;;;;;4901695;29;20032;-91
2023/03/07 01:33:55;;;;;;;19.60;6.30;;;9.20;99.90;;;;;;4901026;29;20111;-91
2023/03/07 01:36:29;;;;;;;16.80;6.07;;;9.20;99.90;;;;;;4882448;29;20076;-92
2023/03/07 01:39:21;;;;;;;14.95;6.82;;;9.10;99.90;;;;;;4898852;29;20033;-92
2023/03/07 01:41:55;;;;;;;14.20;6.13;;;9.00;99.90;;;;;;4883593;29;20025;-91
2023/03/07 01:44:26;;;;;;;13.07;6.07;;;9.00;99.90;;;;;;4884219;29;20495;-92
2023/03/07 01:46:59;;;;;;;16.10;6.57;;;8.90;99.90;;;;;;4882531;29;20028;-91
2023/03/07 01:49:37;;;;;;;19.70;7.35;;;8.90;99.90;;;;;;4883302;29;20040;-92
2023/03/07 01:52:33;;;;;;;16.73;6.85;;;8.90;99.90;;;;;;4898432;29;20112;-93
2023/03/07 01:55:26;;;;;;;19.38;6.75;;;8.90;99.90;;;;;;4796076;29;20395;-91
2023/03/07 01:57:59;;;;;;;17.40;6.05;;;8.90;99.90;;;;;;4811732;29;20030;-91
2023/03/07 02:00:28;;;;;;;16.35;6.15;;;8.90;99.90;;;;;;4808057;29;20039;-91
2023/03/07 02:03:22;;;;;;;14.18;5.95;;;8.80;99.90;;;;;;4792886;29;20027;-92
2023/03/07 02:05:56;;;;;;;15.30;6.03;;;8.70;99.90;;;;;;4766480;29;20063;-92
2023/03/07 02:08:26;;;;;;;13.55;6.13;;;8.60;99.90;;;;;;4808400;29;20030;-91
2023/03/07 02:10:53;;;;;;;17.50;6.38;;;8.50;99.90;;;;;;4808006;29;20652;-91
2023/03/07 02:13:20;;;;;;;13.88;6.10;;;8.50;99.90;;;;;;4793275;29;20050;-92
2023/03/07 02:15:49;;;;;;;12.80;6.15;;;8.50;99.90;;;;;;4808121;29;20065;-91
2023/03/07 02:18:24;;;;;;;13.52;6.45;;;8.40;99.90;;;;;;4796578;29;20034;-91
2023/03/07 02:21:17;;;;;;;14.88;6.32;;;8.40;99.90;;;;;;4811119;29;20037;-92
2023/03/07 02:23:52;;;;;;;11.93;5.93;;;8.30;99.90;;;;;;4795882;29;20042;-92
2023/03/07 02:26:18;;;;;;;10.75;5.65;;;8.30;99.90;;;;;;4811362;29;20083;-92
2023/03/07 02:28:46;;;;;;;11.30;6.10;;;8.30;99.90;;;;;;4796043;29;20034;-92
2023/03/07 02:31:13;;;;;;;11.00;6.00;;;8.10;99.90;;;;;;4833711;29;20140;-92
2023/03/07 02:33:40;;;;;;;17.80;6.30;;;8.10;99.90;;;;;;4885329;29;20039;-91
2023/03/07 02:36:14;;;;;;;11.45;5.70;;;8.10;99.90;;;;;;4888414;29;20075;-91
2023/03/07 02:38:56;;;;;;;19.05;6.80;;;8.10;99.90;;;;;;4905618;29;20040;-91
2023/03/07 02:41:29;;;;;;;15.10;6.30;;;8.10;99.90;;;;;;4903816;29;20028;-91
2023/03/07 02:43:59;;;;;;;12.52;5.75;;;8.00;99.90;;;;;;4904052;29;20032;-92
2023/03/07 02:46:25;;;;;;;14.07;5.53;;;7.90;99.90;;;;;;4903609;29;20036;-92
2023/03/07 02:48:52;;;;;;;14.07;5.50;;;7.90;99.90;;;;;;4903739;29;20028;-91
2023/03/07 02:51:19;;;;;;;14.63;5.80;;;7.90;99.90;;;;;;4903480;29;20039;-91
2023/03/07 02:53:46;;;;;;;20.08;6.72;;;7.90;99.90;;;;;;4903437;29;20052;-91
2023/03/07 02:56:13;;;;;;;13.73;5.78;;;8.00;99.90;;;;;;4903579;29;20032;-91
2023/03/07 02:58:40;;;;;;;16.83;6.00;;;7.90;99.90;;;;;;4903564;29;20036;-93
2023/03/07 03:01:06;;;;;;;11.90;5.80;;;8.00;99.90;;;;;;4884604;29;20438;-93
2023/03/07 03:03:33;;;;;;;11.82;6.38;;;8.00;99.90;;;;;;4868481;29;20052;-91
2023/03/07 03:05:59;;;;;;;13.07;6.07;;;8.00;99.90;;;;;;4870303;29;20062;-90
2023/03/07 03:08:26;;;;;;;18.02;6.18;;;8.10;99.90;;;;;;4868928;29;20039;-91
2023/03/07 03:10:55;;;;;;;9.73;5.90;;;8.10;99.90;;;;;;4863751;29;20032;-91
2023/03/07 03:13:25;;;;;;;15.85;6.13;;;8.00;99.90;;;;;;4869086;29;20064;-91
2023/03/07 03:15:55;;;;;;;9.35;5.40;;;8.00;99.90;;;;;;4877967;29;20019;-92
2023/03/07 03:18:24;;;;;;;13.55;5.85;;;8.00;99.90;;;;;;4870928;29;20048;-92
2023/03/07 03:20:50;;;;;;;10.68;5.50;;;7.90;99.90;;;;;;4868058;29;20371;-92
2023/03/07 03:23:17;;;;;;;12.68;5.15;;;8.00;99.90;;;;;;4867732;29;20383;-91
2023/03/07 03:25:44;;;;;;;8.77;5.60;;;8.00;99.90;;;;;;4867678;29;20035;-92
2023/03/07 03:28:12;;;;;;;14.00;6.00;;;8.00;99.90;;;;;;4864807;29;20377;-91
2023/03/07 03:30:39;;;;;;;13.15;5.95;;;8.00;99.90;;;;;;4846213;29;20037;-92
2023/03/07 03:33:06;;;;;;;15.95;5.75;;;8.10;99.90;;;;;;4831171;29;20053;-93
2023/03/07 03:35:34;;;;;;;15.80;5.60;;;8.10;99.90;;;;;;4830944;29;20064;-92
2023/03/07 03:38:01;;;;;;;17.15;6.00;;;8.20;99.90;;;;;;4831410;29;20048;-92
2023/03/07 03:40:27;;;;;;;17.45;5.28;;;8.20;99.90;;;;;;4846086;29;20081;-91
2023/03/07 03:42:54;;;;;;;10.63;5.82;;;8.30;99.90;;;;;;4846351;29;20125;-91
2023/03/07 03:45:21;;;;;;;13.25;6.18;;;8.30;99.90;;;;;;4846538;29;20100;-90
2023/03/07 03:47:49;;;;;;;10.55;5.43;;;8.30;99.90;;;;;;4846177;29;20037;-92
2023/03/07 03:50:16;;;;;;;10.20;5.55;;;8.30;99.90;;;;;;4846095;29;20034;-92
2023/03/07 03:52:43;;;;;;;11.93;5.85;;;8.30;99.90;;;;;;4845743;29;20061;-91
2023/03/07 03:55:12;;;;;;;9.07;5.57;;;8.20;99.90;;;;;;4846104;29;20124;-91
2023/03/07 03:57:39;;;;;;;11.07;5.93;;;8.20;99.90;;;;;;4845862;29;20025;-91
2023/03/07 04:00:08;;;;;;;19.25;6.30;;;8.30;99.90;;;;;;4867820;29;20040;-92
2023/03/07 04:02:38;;;;;;;15.35;5.90;;;8.30;99.90;;;;;;4883010;29;20037;-91
2023/03/07 04:05:09;;;;;;;12.05;6.15;;;8.30;99.90;;;;;;4860199;29;20492;-91
2023/03/07 04:07:36;;;;;;;12.32;5.72;;;8.40;99.90;;;;;;4876065;29;20036;-92
2023/03/07 04:10:03;;;;;;;13.80;5.93;;;8.40;99.90;;;;;;4901959;29;20482;-92
2023/03/07 04:12:32;;;;;;;17.45;6.47;;;8.40;99.90;;;;;;4901609;29;20036;-91
2023/03/07 04:15:00;;;;;;;15.38;5.80;;;8.50;99.90;;;;;;4901712;29;20028;-93
2023/03/07 04:17:26;;;;;;;12.23;5.65;;;8.50;99.90;;;;;;4901836;29;20442;-92
2023/03/07 04:19:53;;;;;;;10.30;5.68;;;8.50;99.90;;;;;;4902030;29;20455;-91
2023/03/07 04:22:20;;;;;;;10.43;5.97;;;8.50;99.90;;;;;;4902135;29;20032;-92
2023/03/07 04:24:47;;;;;;;13.23;6.00;;;8.40;99.90;;;;;;4904788;29;20024;-92
2023/03/07 04:27:13;;;;;;;14.35;6.35;;;8.40;99.90;;;;;;4925961;28;20095;-91
2023/03/07 04:29:40;;;;;;;12.30;5.75;;;8.40;99.90;;;;;;4924682;28;20016;-91
2023/03/07 04:32:17;;;;;;;19.13;6.65;;;8.40;99.90;;;;;;4908349;29;20068;-92
2023/03/07 04:34:44;;;;;;;14.85;6.43;;;8.40;99.90;;;;;;4900630;29;20100;-92
2023/03/07 04:37:11;;;;;;;12.43;5.72;;;8.40;99.90;;;;;;4906866;29;20032;-91
2023/03/07 04:39:37;;;;;;;13.63;6.30;;;8.40;99.90;;;;;;4907234;29;20045;-91
2023/03/07 04:42:06;;;;;;;17.55;6.00;;;8.40;99.90;;;;;;4906752;29;20035;-92
2023/03/07 04:44:35;;;;;;;15.57;6.25;;;8.40;99.90;;;;;;4920250;29;20035;-91
2023/03/07 04:47:02;;;;;;;26.10;7.57;;;8.30;99.90;;;;;;4909454;29;20047;-91
2023/03/07 04:49:31;;;;;;;16.25;6.45;;;8.30;99.90;;;;;;4901720;29;20032;-91
2023/03/07 04:51:58;;;;;;;19.52;6.53;;;8.30;99.90;;;;;;4883574;29;20082;-93
2023/03/07 04:54:25;;;;;;;16.88;6.63;;;8.30;99.90;;;;;;4864175;29;20040;-93
2023/03/07 04:56:51;;;;;;;19.73;6.93;;;8.20;99.90;;;;;;4848851;29;20089;-92
2023/03/07 04:59:18;;;;;;;13.43;6.97;;;8.20;99.90;;;;;;4877323;29;20132;-91
2023/03/07 05:01:45;;;;;;;15.55;7.22;;;8.30;99.90;;;;;;4869918;29;20029;-91
2023/03/07 05:04:12;;;;;;;18.05;7.55;;;8.40;99.90;;;;;;4869742;29;20059;-91
2023/03/07 05:06:38;;;;;;;23.15;7.78;;;8.50;99.90;;;;;;4849936;29;20033;-91
2023/03/07 05:09:05;;;;;;;17.23;7.00;;;8.50;99.90;;;;;;4865418;29;20029;-92
2023/03/07 05:11:31;;;;;;;20.73;8.38;;;8.50;99.90;;;;;;4848566;29;20116;-92
2023/03/07 05:13:58;;;;;;;14.95;6.40;;;8.60;99.90;;;;;;4864200;29;20109;-91
2023/03/07 05:16:25;;;;;;;11.65;6.20;;;8.50;99.90;;;;;;4851180;29;20030;-90
2023/03/07 05:18:52;;;;;;;14.82;6.47;;;8.60;99.90;;;;;;4864722;29;20052;-92
2023/03/07 05:21:19;;;;;;;16.25;6.65;;;8.60;99.90;;;;;;4848698;29;20031;-92
2023/03/07 05:23:45;;;;;;;20.48;7.30;;;8.60;99.90;;;;;;4863622;29;20029;-93
2023/03/07 05:26:13;;;;;;;14.50;6.97;;;8.60;99.90;;;;;;4863692;29;20120;-91
2023/03/07 05:28:39;;;;;;;12.82;7.63;;;8.70;99.90;;;;;;4864716;29;20036;-91
2023/03/07 05:31:06;;;;;;;11.85;7.43;;;8.70;99.90;;;;;;4848472;29;20032;-92
2023/03/07 05:33:32;;;;;;;16.83;7.22;;;8.70;99.90;;;;;;4863527;29;20555;-92
2023/03/07 05:36:00;;;;;;;16.98;7.78;;;8.80;99.90;;;;;;4848238;29;20045;-91
2023/03/07 05:38:30;;;;;;;12.38;7.28;;;8.80;99.90;;;;;;4848907;29;20044;-92
2023/03/07 05:40:56;;;;;;;19.10;8.77;;;8.90;99.90;;;;;;4850961;29;20037;-91
2023/03/07 05:43:23;;;;;;;20.38;8.85;;;9.00;99.90;;;;;;4850076;29;20029;-91
2023/03/07 05:45:51;;;;;;;19.90;9.38;;;9.00;99.90;;;;;;4850118;29;20449;-92
2023/03/07 05:48:18;;;;;;;19.73;9.30;;;9.10;99.90;;;;;;4851539;29;20395;-91
2023/03/07 05:50:46;;;;;;;24.08;9.48;;;9.20;99.90;;;;;;4849153;29;20568;-93
2023/03/07 05:53:13;;;;;;;16.58;8.57;;;9.20;99.90;;;;;;4851577;29;20044;-92
2023/03/07 05:55:39;;;;;;;15.35;7.53;;;9.30;99.90;;;;;;4852116;29;20025;-93
2023/03/07 05:58:06;;;;;;;16.77;8.10;;;9.30;99.90;;;;;;4851739;29;20031;-93
2023/03/07 06:00:32;;;;;;;17.20;8.48;;;9.30;99.90;;;;;;4851849;29;20514;-92
2023/03/07 06:03:03;;;;;;;13.98;8.75;;;9.30;99.90;;;;;;4851817;29;20029;-92
2023/03/07 06:05:31;;;;;;;14.73;9.23;;;9.30;99.90;;;;;;4851745;29;20033;-93
2023/03/07 06:07:57;;;;;;;20.00;9.73;;;9.40;99.90;;;;;;4851842;29;20029;-94
2023/03/07 06:10:24;;;;;;;20.55;9.88;;;9.40;99.90;;;;;;4851765;29;20063;-92
2023/03/07 06:12:52;;;;;;;21.92;10.75;;;9.50;99.90;;;;;;4851269;29;20053;-92
2023/03/07 06:15:20;;;;;;;15.82;8.70;;;9.60;99.90;;;;;;4851921;29;20029;-92
2023/03/07 06:17:51;;;;;;;14.52;7.88;;;9.70;99.90;;;;;;4851502;29;20507;-93
2023/03/07 06:20:22;;;;;;;15.77;8.27;;;9.80;99.90;;;;;;4866610;29;20077;-92
2023/03/07 06:22:49;;;;;;;15.35;8.43;;;9.90;99.90;;;;;;4866326;29;20061;-93
2023/03/07 06:25:16;;;;;;;18.30;8.95;;;10.10;99.90;;;;;;4866459;29;20056;-93
2023/03/07 06:27:42;;;;;;;17.30;6.50;;;10.30;99.90;;;;;;4866465;29;20111;-93
2023/03/07 06:30:11;;;;;;;11.32;6.05;;;11.20;99.90;;;;;;4866896;29;20033;-92
2023/03/07 06:32:37;;;;;;;14.13;7.03;;;12.00;99.90;;;;;;4866673;29;20052;-92
2023/03/07 06:35:06;;;;;;;11.57;8.50;;;12.50;99.90;;;;;;4866241;29;20047;-90
2023/03/07 06:37:33;;;;;;;15.90;10.13;;;12.80;99.90;;;;;;4883086;29;20048;-93
2023/03/07 06:40:05;;;;;;;15.20;12.30;;;13.20;99.90;;;;;;4884903;29;20422;-90
2023/03/07 06:42:33;;;;;;;15.93;14.38;;;13.80;99.90;;;;;;4885048;29;20033;-92
2023/03/07 06:45:00;;;;;;;21.08;16.55;;;14.00;99.90;;;;;;4887730;29;20024;-94
2023/03/07 06:47:28;;;;;;;21.30;18.95;;;14.10;99.90;;;;;;4903498;29;20458;-94
2023/03/07 06:49:55;;;;;;;19.65;17.77;;;14.50;99.90;;;;;;4903633;29;20024;-92
2023/03/07 06:52:22;;;;;;;21.70;19.77;;;14.80;99.90;;;;;;4903238;29;20028;-91
2023/03/07 06:54:48;;;;;;;23.45;21.02;;;15.10;99.90;;;;;;4903303;29;20068;-90
2023/03/07 06:57:15;;;;;;;21.38;19.48;;;15.40;99.90;;;;;;4903363;29;20024;-90
2023/03/07 06:59:41;;;;;;;19.30;17.70;;;15.30;99.90;;;;;;4903332;29;20040;-91
2023/03/07 07:02:13;;;;;;;19.85;17.88;;;15.20;99.90;;;;;;4902781;29;20028;-91
2023/03/07 07:04:40;;;;;;;20.08;18.20;;;15.40;99.90;;;;;;4903280;29;20032;-90
2023/03/07 07:07:06;;;;;;;21.02;19.00;;;15.70;99.90;;;;;;4903531;29;20025;-89
2023/03/07 07:09:33;;;;;;;20.70;19.00;;;16.10;99.90;;;;;;4903065;29;20090;-91
2023/03/07 07:12:00;;;;;;;21.10;19.17;;;16.30;99.90;;;;;;4902923;29;20020;-90
2023/03/07 07:14:27;;;;;;;21.50;19.70;;;16.70;99.90;;;;;;4902946;29;20083;-90
2023/03/07 07:16:53;;;;;;;20.95;19.45;;;16.90;99.90;;;;;;4887413;29;20513;-92
2023/03/07 07:19:20;;;;;;;22.02;20.15;;;17.00;99.90;;;;;;4905437;29;20461;-90
2023/03/07 07:21:47;;;;;;;22.02;20.25;;;17.00;99.90;;;;;;4902923;29;20040;-91
2023/03/07 07:24:13;;;;;;;22.63;20.67;;;17.00;99.90;;;;;;4902896;29;20036;-90
2023/03/07 07:26:40;;;;;;;22.48;20.48;;;17.40;99.90;;;;;;4902774;29;20035;-91
2023/03/07 07:29:08;;;;;;;22.73;20.88;;;17.80;99.90;;;;;;4902907;29;20151;-90
2023/03/07 07:31:35;;;;;;;20.38;18.92;;;18.00;99.90;;;;;;4902592;29;20040;-90
2023/03/07 07:34:03;;;;;;;21.20;19.67;;;18.10;99.90;;;;;;4902587;29;20573;-90
2023/03/07 07:36:33;;;;;;;21.20;19.73;;;17.70;99.90;;;;;;4902945;29;20143;-90
2023/03/07 07:39:05;;;;;;;20.05;18.60;;;17.50;99.90;;;;;;4887520;29;20493;-90
2023/03/07 07:41:34;;;;;;;19.98;18.77;;;17.60;99.90;;;;;;4903124;29;20036;-90
2023/03/07 07:44:00;;;;;;;20.63;19.30;;;17.70;99.90;;;;;;4902336;29;20032;-91
2023/03/07 07:46:37;;;;;;;20.15;18.95;;;18.10;99.90;;;;;;4903156;29;20038;-90
2023/03/07 07:49:05;;;;;;;20.45;19.15;;;18.40;99.90;;;;;;4902596;29;20537;-90
2023/03/07 07:51:32;;;;;;;20.83;19.50;;;18.60;99.90;;;;;;4886695;29;20032;-90
2023/03/07 07:53:59;;;;;;;20.50;19.15;;;18.20;99.90;;;;;;4902533;29;20122;-91
2023/03/07 07:56:26;;;;;;;20.10;18.80;;;17.90;99.90;;;;;;4902227;29;20550;-90
2023/03/07 07:58:53;;;;;;;19.98;18.48;;;17.70;99.90;;;;;;4902268;29;20135;-90
2023/03/07 08:01:23;;;;;;;19.63;18.35;;;17.70;99.90;;;;;;4902260;29;20075;-91
2023/03/07 08:03:50;;;;;;;20.00;18.55;;;17.90;99.90;;;;;;4901980;29;20032;-91
2023/03/07 08:06:22;;;;;;;20.80;19.30;;;18.10;99.90;;;;;;4902155;29;20031;-91
2023/03/07 08:08:50;;;;;;;20.70;19.30;;;17.90;99.90;;;;;;4901987;29;20474;-90
2023/03/07 08:11:18;;;;;;;21.52;19.60;;;18.10;99.90;;;;;;4901720;29;20088;-91
2023/03/07 08:13:45;;;;;;;20.88;19.48;;;18.30;99.90;;;;;;4900981;29;20067;-90
2023/03/07 08:16:16;;;;;;;21.25;19.75;;;18.20;99.90;;;;;;4901830;29;20071;-91
2023/03/07 08:18:47;;;;;;;21.85;20.35;;;18.60;99.90;;;;;;4901938;29;20063;-90
2023/03/07 08:21:13;;;;;;;21.88;20.48;;;18.40;99.90;;;;;;4901784;29;20581;-90
2023/03/07 08:23:39;;;;;;;22.13;20.48;;;18.40;99.90;;;;;;4902079;29;20051;-91
2023/03/07 08:28:42;;;;;;;22.60;20.90;;;17.80;99.90;;;;;;4937020;23;20052;-89
2023/03/07 08:31:13;;;;;;;21.17;19.90;;;17.80;99.90;;;;;;4903748;29;20042;-90
2023/03/07 08:33:40;;;;;;;22.20;20.80;;;17.70;99.90;;;;;;4888071;29;20134;-86
2023/03/07 08:36:06;;;;;;;22.10;20.58;;;18.10;99.90;;;;;;4920178;29;20389;-86
2023/03/07 08:38:33;;;;;;;21.65;20.15;;;17.80;99.90;;;;;;4922611;29;20071;-84
2023/03/07 08:41:03;;;;;;;21.50;19.92;;;17.80;99.90;;;;;;4937539;29;20425;-87
2023/03/07 08:43:30;;;;;;;21.95;20.50;;;17.90;99.90;;;;;;4920662;29;20489;-90
2023/03/07 08:45:57;;;;;;;21.92;20.45;;;18.20;99.90;;;;;;4920644;29;20114;-87
2023/03/07 08:48:25;;;;;;;22.23;20.63;;;18.10;99.90;;;;;;4920249;29;20034;-87
2023/03/07 08:50:52;;;;;;;21.85;20.05;;;18.10;99.90;;;;;;4916870;29;20098;-87
2023/03/07 08:53:18;;;;;;;21.90;20.52;;;18.30;99.90;;;;;;4920110;29;20103;-88
2023/03/07 08:55:46;;;;;;;21.02;19.67;;;18.50;99.90;;;;;;4920195;29;20028;-89
2023/03/07 08:58:15;;;;;;;20.27;19.10;;;18.80;99.90;;;;;;4924931;23;20055;-92
2023/03/07 09:00:45;;;;;;;21.60;20.20;;;18.60;99.90;;;;;;4922072;23;20082;-90
2023/03/07 09:03:51;;;;;;;21.02;19.70;;;18.30;99.90;;;;;;4908398;29;20047;-93
2023/03/07 09:07:35;;;;;;;;;;;;;;;;;;;;;
2023/03/07 09:10:31;;;;;;;20.23;19.00;;;17.50;99.90;;;;;;4968454;23;20064;-92
2023/03/07 09:19:07;;;;;;;19.98;18.77;;;17.40;99.90;;;;;;4966197;23;19923;-91
2023/03/07 09:25:09;;;;;;;20.70;19.35;;;16.70;99.90;;;;;;4988190;23;20438;-92
2023/03/07 09:27:36;;;;;;;20.17;19.00;;;17.00;99.90;;;;;;4905059;29;20482;-91
2023/03/07 09:30:02;;;;;;;19.90;18.73;;;17.50;99.90;;;;;;4904897;29;20036;-91
2023/03/07 09:32:32;;;;;;;20.80;19.40;;;17.90;99.90;;;;;;4905460;29;20560;-91
2023/03/07 09:34:58;;;;;;;20.73;19.33;;;17.70;99.90;;;;;;4905106;29;20035;-94
2023/03/07 09:37:24;;;;;;;20.55;19.45;;;17.50;99.90;;;;;;4904761;29;20021;-92
2023/03/07 09:39:51;;;;;;;20.27;19.17;;;17.80;99.90;;;;;;4905292;29;20046;-93
2023/03/07 09:42:35;;;;;;;20.02;18.75;;;18.20;99.90;;;;;;4906024;29;20028;-94
2023/03/07 09:45:20;;;;;;;;;;;18.10;99.90;;;;;;4905328;29;20159;-93
2023/03/07 09:48:13;;;;;;;20.63;19.33;;;18.00;99.90;;;;;;4890631;29;19990;-94
2023/03/07 09:50:58;;;;;;;20.10;18.85;;;17.80;99.90;;;;;;4907065;29;20060;-93
2023/03/07 09:54:19;;;;;;;20.42;19.10;;;17.80;99.90;;;;;;4949098;23;20060;-93
2023/03/07 09:57:30;;;;;;;20.63;19.05;;;17.70;99.90;;;;;;4881896;23;20048;-84
2023/03/07 09:59:59;;;;;;;;;;;17.90;99.90;;;;;;5005073;23;20549;-90
2023/03/07 10:02:37;;;;;;;21.27;19.85;;;17.70;99.90;;;;;;4904606;29;19942;-91
2023/03/07 10:05:42;;;;;;;20.75;19.45;;;18.10;99.90;;;;;;4904502;29;20113;-94
2023/03/07 10:08:22;;;;;;;21.65;19.83;;;18.70;99.90;;;;;;4885594;29;20037;-92
2023/03/07 10:10:56;;;;;;;21.60;20.10;;;19.00;99.90;;;;;;4885853;29;20068;-93
2023/03/07 10:13:35;;;;;;;21.08;19.88;;;19.00;99.90;;;;;;4885546;29;20037;-91
2023/03/07 10:16:33;;;;;;;21.70;20.40;;;19.10;99.90;;;;;;4885488;29;20028;-91
2023/03/07 10:18:59;;;;;;;21.30;19.73;;;19.10;99.90;;;;;;4872787;29;20036;-87
2023/03/07 10:21:57;;;;;;;21.02;19.77;;;19.30;99.90;;;;;;4871911;29;20021;-89
2023/03/07 10:24:50;;;;;;;20.70;19.20;;;18.70;99.90;;;;;;4928971;29;20039;-73
2023/03/07 10:27:22;;;;;;;20.38;19.02;;;18.40;99.90;;;;;;4941602;29;20028;-74
2023/03/07 10:29:51;;;;;;;21.42;20.13;;;18.20;99.90;;;;;;4941422;29;20035;-73
2023/03/07 10:32:39;;;;;;;22.33;20.38;;;18.40;99.90;;;;;;4941250;29;20366;-73
2023/03/07 10:35:50;;;;;;;21.02;19.70;;;18.60;99.90;;;;;;4923379;29;20481;-89
2023/03/07 10:38:33;;;;;;;21.63;20.23;;;18.40;99.90;;;;;;4907049;29;20032;-92
2023/03/07 10:41:15;;;;;;;21.45;20.15;;;18.30;99.90;;;;;;4919987;29;20066;-87
2023/03/07 10:43:43;;;;;;;21.80;20.48;;;18.10;99.90;;;;;;4910599;29;20078;-93
2023/03/07 10:46:16;;;;;;;21.33;19.90;;;18.20;99.90;;;;;;4922434;29;20032;-93
2023/03/07 10:48:48;;;;;;;21.73;20.05;;;18.60;99.90;;;;;;4922345;29;20028;-94
2023/03/07 10:51:51;;;;;;;21.15;19.80;;;18.70;99.90;;;;;;4905980;29;20032;-91
2023/03/07 10:54:21;;;;;;;21.83;20.42;;;18.70;99.90;;;;;;4888140;29;20054;-92
2023/03/07 10:57:03;;;;;;;21.67;20.27;;;19.00;99.90;;;;;;4922080;29;20118;-91
2023/03/07 10:59:30;;;;;;;21.50;20.10;;;19.10;99.90;;;;;;4922060;29;20048;-92
2023/03/07 11:01:59;;;;;;;21.02;19.77;;;19.10;99.90;;;;;;4906499;29;20043;-92
2023/03/07 11:04:29;;;;;;;20.90;19.70;;;19.10;99.90;;;;;;4922138;29;20426;-91
2023/03/07 11:06:57;;;;;;;21.20;19.90;;;19.00;99.90;;;;;;4921994;29;20038;-92
2023/03/07 11:09:28;;;;;;;21.83;20.52;;;18.60;99.90;;;;;;4921959;29;20027;-92
2023/03/07 11:12:04;;;;;;;21.50;20.10;;;18.60;99.90;;;;;;4921990;29;20031;-90
2023/03/07 11:14:52;;;;;;;21.20;19.90;;;18.40;99.90;;;;;;4921861;29;20047;-91
2023/03/07 11:17:23;;;;;;;21.58;20.27;;;18.20;99.90;;;;;;4922176;29;20549;-89
2023/03/07 11:19:54;;;;;;;21.02;19.83;;;18.10;99.90;;;;;;4922248;29;20047;-90
2023/03/07 11:22:32;;;;;;;21.20;19.90;;;18.00;99.90;;;;;;4923131;29;20027;-90
2023/03/07 11:25:02;;;;;;;20.88;19.77;;;18.10;99.90;;;;;;4924172;29;20107;-89
2023/03/07 11:27:45;;;;;;;21.60;20.20;;;18.10;99.90;;;;;;4923745;29;20023;-90
2023/03/07 11:30:18;;;;;;;21.50;20.30;;;18.30;99.90;;;;;;4923932;29;20062;-90
2023/03/07 11:33:08;;;;;;;21.38;20.10;;;18.40;99.90;;;;;;4923812;29;20060;-85
2023/03/07 11:35:58;;;;;;;20.98;19.80;;;18.50;99.90;;;;;;4923952;29;20227;-88
2023/03/07 11:38:49;;;;;;;21.25;19.95;;;18.50;99.90;;;;;;4924153;29;20036;-87
2023/03/07 11:41:29;;;;;;;21.42;20.23;;;18.20;99.90;;;;;;4923572;29;20072;-87
2023/03/07 11:44:18;;;;;;;21.65;20.27;;;18.00;99.90;;;;;;4920557;29;20518;-88
2023/03/07 11:46:51;;;;;;;22.10;20.80;;;17.80;99.90;;;;;;4904834;29;20036;-90
2023/03/07 11:49:30;;;;;;;21.50;20.20;;;18.20;99.90;;;;;;4905095;29;20028;-89
2023/03/07 11:52:18;;;;;;;21.70;20.40;;;18.40;99.90;;;;;;4905857;29;20398;-90
2023/03/07 11:54:56;;;;;;;22.02;20.30;;;18.40;99.90;;;;;;4907583;29;20051;-90
2023/03/07 11:57:43;;;;;;;21.55;20.17;;;18.10;99.90;;;;;;4908312;29;20059;-92
2023/03/07 12:00:47;;;;;;;21.10;19.90;;;18.10;99.90;;;;;;4894818;29;20048;-91
2023/03/07 12:03:38;;;;;;;21.38;19.77;;;18.00;99.90;;;;;;4898353;29;20060;-86
2023/03/07 12:06:14;;;;;;;21.35;19.77;;;17.90;99.90;;;;;;4862947;29;20038;-87
2023/03/07 12:09:12;;;;;;;20.58;19.42;;;17.90;99.90;;;;;;4861440;29;20030;-86
2023/03/07 12:12:35;;;;;;;20.85;19.52;;;17.90;99.90;;;;;;4861158;29;20034;-88
2023/03/07 12:15:31;;;;;;;20.60;19.40;;;17.70;99.90;;;;;;4824058;29;20098;-88
2023/03/07 12:18:08;;;;;;;20.50;19.30;;;17.60;99.90;;;;;;4824292;29;20674;-88
2023/03/07 12:21:13;;;;;;;19.67;18.67;;;17.60;99.90;;;;;;4824127;29;20137;-90
2023/03/07 12:23:53;;;;;;;20.33;19.23;;;17.60;99.90;;;;;;4814907;29;20038;-89
2023/03/07 12:26:35;;;;;;;20.80;19.65;;;17.60;99.90;;;;;;4835634;29;20042;-89
2023/03/07 12:29:36;;;;;;;21.55;20.02;;;17.40;99.90;;;;;;4814873;29;20032;-83
2023/03/07 12:32:16;;;;;;;21.48;20.38;;;17.50;99.90;;;;;;4736311;30;20047;-83
2023/03/07 12:34:45;;;;;;;21.38;20.08;;;17.30;99.90;;;;;;4749413;30;20228;-82
2023/03/07 12:37:42;;;;;;;21.30;20.00;;;17.30;99.90;;;;;;4748928;30;20523;-83
2023/03/07 12:40:25;;;;;;;21.80;20.60;;;17.50;99.90;;;;;;4736163;30;20111;-83
2023/03/07 12:42:55;;;;;;;21.55;20.40;;;17.50;99.90;;;;;;4744175;30;20456;-81
2023/03/07 12:45:32;;;;;;;21.90;20.50;;;17.60;99.90;;;;;;4730820;30;20032;-82
2023/03/07 12:49:03;;;;;;;21.55;20.30;;;17.60;99.90;;;;;;4764185;30;20047;-82
2023/03/07 12:51:38;;;;;;;21.10;20.00;;;17.50;99.90;;;;;;4742453;30;20039;-81
2023/03/07 12:54:20;;;;;;;21.70;20.60;;;17.40;99.90;;;;;;4741833;30;20060;-83
2023/03/07 12:57:22;;;;;;;21.23;19.95;;;17.30;99.90;;;;;;4747058;30;20048;-85
2023/03/07 12:59:50;;;;;;;21.27;20.17;;;17.30;99.90;;;;;;4751725;30;20473;-85
2023/03/07 13:02:27;;;;;;;21.50;20.30;;;17.50;99.90;;;;;;4752525;30;20068;-84
2023/03/07 13:04:54;;;;;;;21.08;19.77;;;17.50;99.90;;;;;;4753769;30;20034;-83
2023/03/07 13:07:26;;;;;;;21.63;20.42;;;17.50;99.90;;;;;;4783175;29;20042;-84
2023/03/07 13:09:56;;;;;;;21.13;20.02;;;17.70;99.90;;;;;;4842914;29;20037;-84
2023/03/07 13:12:30;;;;;;;21.95;20.75;;;17.80;99.90;;;;;;4843829;29;20057;-83
2023/03/07 13:15:02;;;;;;;21.48;20.27;;;17.80;99.90;;;;;;4859215;29;20053;-90
2023/03/07 13:20:26;;;;;;;22.63;21.10;;;17.30;99.90;;;;;;5310855;23;20089;-86